Time;durP1;ratioP1;P1;durP2;ratioP2;P2;SDS_P1;SDS_P2;PMS_P1;PMS_P2;Temp;Humidity;BMP_temperature;BMP_pressure;BME280_temperature;BME280_humidity;BME280_pressure;Samples;Min_cycle;Max_cycle;Signal;HPM_P1;HPM_P2
2021/06/20 00:00:53;;;;;;;11.40;10.30;;;;;;;;;;5014191;28;20400;-70
2021/06/20 00:03:19;;;;;;;12.33;11.10;;;;;;;;;;5016034;28;20396;-70
2021/06/20 00:05:51;;;;;;;11.50;10.30;;;;;;;;;;5015065;28;20461;-70
2021/06/20 00:08:17;;;;;;;12.30;10.90;;;;;;;;;;5011745;28;20462;-70
2021/06/20 00:10:43;;;;;;;12.80;9.57;;;;;;;;;;5014484;28;20419;-70
2021/06/20 00:13:09;;;;;;;14.33;10.17;;;;;;;;;;5035720;28;20927;-71
2021/06/20 00:15:37;;;;;;;13.93;10.37;;;;;;;;;;5034707;28;20500;-70
2021/06/20 00:18:04;;;;;;;12.60;9.97;;;;;;;;;;5016033;28;20477;-71
2021/06/20 00:20:31;;;;;;;10.63;9.50;;;;;;;;;;5015848;28;20913;-70
2021/06/20 00:22:58;;;;;;;10.90;9.60;;;;;;;;;;5033547;28;20431;-71
2021/06/20 00:25:24;;;;;;;11.50;10.33;;;;;;;;;;5035760;28;20486;-70
2021/06/20 00:27:51;;;;;;;11.13;10.03;;;;;;;;;;5033734;28;20450;-70
2021/06/20 00:30:18;;;;;;;11.47;9.80;;;;;;;;;;5035521;28;20411;-71
2021/06/20 00:32:45;;;;;;;13.33;11.03;;;;;;;;;;5032627;28;20452;-71
2021/06/20 00:35:11;;;;;;;15.33;10.67;;;;;;;;;;5036108;28;20482;-71
2021/06/20 00:37:37;;;;;;;12.50;11.30;;;;;;;;;;5033179;28;20454;-70
2021/06/20 00:40:04;;;;;;;13.90;10.43;;;;;;;;;;5022866;28;20796;-70
2021/06/20 00:42:30;;;;;;;14.23;10.00;;;;;;;;;;5028853;28;20761;-71
2021/06/20 00:44:56;;;;;;;12.17;10.27;;;;;;;;;;5035103;28;20407;-71
2021/06/20 00:47:22;;;;;;;11.20;9.63;;;;;;;;;;5033239;28;20456;-71
2021/06/20 00:49:48;;;;;;;12.63;10.50;;;;;;;;;;5035377;28;20731;-71
2021/06/20 00:52:14;;;;;;;12.67;9.77;;;;;;;;;;5032934;28;20512;-71
2021/06/20 00:54:47;;;;;;;11.20;10.10;;;;;;;;;;5035218;28;20472;-72
2021/06/20 00:57:17;;;;;;;11.30;10.20;;;;;;;;;;5034040;28;20541;-71
2021/06/20 00:59:47;;;;;;;11.70;10.03;;;;;;;;;;5035482;28;20466;-71
2021/06/20 01:02:13;;;;;;;10.10;9.10;;;;;;;;;;5028618;28;20426;-71
2021/06/20 01:04:40;;;;;;;10.70;9.63;;;;;;;;;;5035890;28;20755;-71
2021/06/20 01:07:06;;;;;;;10.90;9.73;;;;;;;;;;5033592;28;20903;-71
2021/06/20 01:09:32;;;;;;;11.43;10.27;;;;;;;;;;5034831;28;20426;-71
2021/06/20 01:11:58;;;;;;;10.60;9.60;;;;;;;;;;5024099;28;20431;-71
2021/06/20 01:14:24;;;;;;;11.30;10.10;;;;;;;;;;5013937;28;20478;-71
2021/06/20 01:16:51;;;;;;;11.60;9.87;;;;;;;;;;5021224;28;20438;-71
2021/06/20 01:19:19;;;;;;;12.00;10.03;;;;;;;;;;5034518;28;20422;-71
2021/06/20 01:21:45;;;;;;;14.27;11.03;;;;;;;;;;5032907;28;20477;-71
2021/06/20 01:24:11;;;;;;;11.77;10.60;;;;;;;;;;5035818;28;20411;-71
2021/06/20 01:26:38;;;;;;;11.40;9.63;;;;;;;;;;5033082;28;20418;-71
2021/06/20 01:29:05;;;;;;;12.60;10.07;;;;;;;;;;5034860;28;20446;-71
2021/06/20 01:31:33;;;;;;;10.17;9.17;;;;;;;;;;5024188;28;20426;-71
2021/06/20 01:34:00;;;;;;;12.20;10.90;;;;;;;;;;5012989;28;20434;-71
2021/06/20 01:36:26;;;;;;;11.20;10.00;;;;;;;;;;5015601;28;20419;-71
2021/06/20 01:38:52;;;;;;;10.80;9.70;;;;;;;;;;5032994;28;20514;-71
2021/06/20 01:41:18;;;;;;;11.80;10.60;;;;;;;;;;5032371;28;20462;-71
2021/06/20 01:43:44;;;;;;;12.53;10.53;;;;;;;;;;5034036;28;20414;-71
2021/06/20 01:46:10;;;;;;;13.17;10.57;;;;;;;;;;5031281;28;20409;-71
2021/06/20 01:48:36;;;;;;;10.90;9.60;;;;;;;;;;5014094;28;20815;-71
2021/06/20 01:51:05;;;;;;;10.97;9.87;;;;;;;;;;4995803;28;20427;-71
2021/06/20 01:53:31;;;;;;;10.27;9.27;;;;;;;;;;5009925;28;20462;-71
2021/06/20 01:55:57;;;;;;;11.20;9.73;;;;;;;;;;5013943;28;20842;-71
2021/06/20 01:58:23;;;;;;;11.10;10.00;;;;;;;;;;5026729;28;20937;-71
2021/06/20 02:00:53;;;;;;;13.20;11.20;;;;;;;;;;5033831;28;20813;-71
2021/06/20 02:03:23;;;;;;;10.53;9.53;;;;;;;;;;5018285;28;20781;-71
2021/06/20 02:05:49;;;;;;;11.53;10.33;;;;;;;;;;5014068;28;20442;-71
2021/06/20 02:08:19;;;;;;;10.87;9.50;;;;;;;;;;5024037;28;20453;-71
2021/06/20 02:10:49;;;;;;;11.73;10.53;;;;;;;;;;5033828;28;20486;-71
2021/06/20 02:13:15;;;;;;;14.50;10.70;;;;;;;;;;5031997;28;20510;-71
2021/06/20 02:15:42;;;;;;;12.23;11.03;;;;;;;;;;5012103;28;20500;-71
2021/06/20 02:18:08;;;;;;;11.53;10.43;;;;;;;;;;5022750;28;20546;-71
2021/06/20 02:20:34;;;;;;;11.30;10.10;;;;;;;;;;5033693;28;20413;-71
2021/06/20 02:23:00;;;;;;;14.00;12.33;;;;;;;;;;5024063;28;20476;-71
2021/06/20 02:25:26;;;;;;;14.63;11.23;;;;;;;;;;5020747;28;20772;-71
2021/06/20 02:27:53;;;;;;;14.37;11.07;;;;;;;;;;5020894;28;20457;-71
2021/06/20 02:30:20;;;;;;;14.83;11.90;;;;;;;;;;5033310;28;20413;-71
2021/06/20 02:32:47;;;;;;;13.73;11.57;;;;;;;;;;5023856;28;20442;-71
2021/06/20 02:35:14;;;;;;;11.40;10.20;;;;;;;;;;5027354;28;20829;-70
2021/06/20 02:37:40;;;;;;;12.90;10.53;;;;;;;;;;5018015;28;20822;-71
2021/06/20 02:40:07;;;;;;;12.90;10.90;;;;;;;;;;5033243;28;20442;-71
2021/06/20 02:42:33;;;;;;;11.87;10.13;;;;;;;;;;5025221;28;20428;-71
2021/06/20 02:44:59;;;;;;;12.30;10.73;;;;;;;;;;5013337;28;20415;-71
2021/06/20 02:47:25;;;;;;;12.47;11.13;;;;;;;;;;5015344;28;20427;-71
2021/06/20 02:49:51;;;;;;;13.83;12.03;;;;;;;;;;5033027;28;20410;-71
2021/06/20 02:52:17;;;;;;;11.63;10.43;;;;;;;;;;5030997;28;20431;-71
2021/06/20 02:54:50;;;;;;;13.83;10.27;;;;;;;;;;5032900;28;20453;-71
2021/06/20 02:57:26;;;;;;;14.60;12.13;;;;;;;;;;5030933;28;20585;-71
2021/06/20 02:59:53;;;;;;;11.27;10.10;;;;;;;;;;5017230;28;20510;-71
2021/06/20 03:02:19;;;;;;;13.90;11.37;;;;;;;;;;5020505;28;20427;-71
2021/06/20 03:04:45;;;;;;;13.03;11.27;;;;;;;;;;5039736;28;20736;-71
2021/06/20 03:07:11;;;;;;;13.17;11.30;;;;;;;;;;5036459;28;20406;-71
2021/06/20 03:09:37;;;;;;;14.17;12.67;;;;;;;;;;5020485;28;20463;-71
2021/06/20 03:12:05;;;;;;;15.97;11.90;;;;;;;;;;5018878;28;20411;-70
2021/06/20 03:14:31;;;;;;;12.10;11.00;;;;;;;;;;5020475;28;20534;-71
2021/06/20 03:16:57;;;;;;;12.87;11.50;;;;;;;;;;5019872;28;20498;-71
2021/06/20 03:19:23;;;;;;;13.40;12.10;;;;;;;;;;5037116;28;20446;-71
2021/06/20 03:21:50;;;;;;;13.73;11.90;;;;;;;;;;5020378;28;20426;-71
2021/06/20 03:24:16;;;;;;;13.60;11.30;;;;;;;;;;5001052;28;20435;-71
2021/06/20 03:26:42;;;;;;;13.13;11.77;;;;;;;;;;4999982;28;20415;-71
2021/06/20 03:29:08;;;;;;;12.13;9.50;;;;;;;;;;5032334;28;20486;-71
2021/06/20 03:31:34;;;;;;;16.13;11.03;;;;;;;;;;5037118;28;20427;-71
2021/06/20 03:34:01;;;;;;;11.83;10.63;;;;;;;;;;5037369;28;20432;-71
2021/06/20 03:36:28;;;;;;;11.27;10.13;;;;;;;;;;5037869;28;20402;-71
2021/06/20 03:38:54;;;;;;;11.43;10.27;;;;;;;;;;5037334;28;20785;-71
2021/06/20 03:41:20;;;;;;;13.70;11.00;;;;;;;;;;5039293;28;20481;-71
2021/06/20 03:43:46;;;;;;;19.10;10.93;;;;;;;;;;5037132;28;20981;-71
2021/06/20 03:46:12;;;;;;;11.70;10.43;;;;;;;;;;5038874;28;20409;-71
2021/06/20 03:48:39;;;;;;;11.80;10.00;;;;;;;;;;5036875;28;20600;-71
2021/06/20 03:51:05;;;;;;;11.40;9.70;;;;;;;;;;5038968;28;20410;-71
2021/06/20 03:53:32;;;;;;;21.33;11.07;;;;;;;;;;5026606;28;20438;-71
2021/06/20 03:55:58;;;;;;;11.00;8.80;;;;;;;;;;5019010;28;20442;-71
2021/06/20 03:58:24;;;;;;;11.47;9.30;;;;;;;;;;5025654;28;20457;-71
2021/06/20 04:00:50;;;;;;;13.03;9.20;;;;;;;;;;5012654;28;20447;-71
2021/06/20 04:03:16;;;;;;;11.47;10.33;;;;;;;;;;5008698;28;20553;-71
2021/06/20 04:05:42;;;;;;;11.03;9.77;;;;;;;;;;5002312;28;20419;-70
2021/06/20 04:08:08;;;;;;;9.83;8.77;;;;;;;;;;5016966;28;20500;-71
2021/06/20 04:10:35;;;;;;;12.90;10.93;;;;;;;;;;5026702;28;20403;-71
2021/06/20 04:13:01;;;;;;;11.97;10.03;;;;;;;;;;5032945;28;20458;-71
2021/06/20 04:15:27;;;;;;;12.03;9.97;;;;;;;;;;5035697;28;20556;-71
2021/06/20 04:17:54;;;;;;;11.53;9.33;;;;;;;;;;5033973;28;20450;-71
2021/06/20 04:20:20;;;;;;;11.63;9.90;;;;;;;;;;5035890;28;20901;-71
2021/06/20 04:22:46;;;;;;;12.07;10.87;;;;;;;;;;5031318;28;20427;-71
2021/06/20 04:25:15;;;;;;;11.63;10.43;;;;;;;;;;5016226;28;20410;-71
2021/06/20 04:27:50;;;;;;;11.17;9.97;;;;;;;;;;5014954;28;20446;-70
2021/06/20 04:30:16;;;;;;;11.57;10.17;;;;;;;;;;5016212;28;20832;-71
2021/06/20 04:32:44;;;;;;;9.57;8.67;;;;;;;;;;5015133;28;20918;-71
2021/06/20 04:35:11;;;;;;;39.10;11.30;;;;;;;;;;5035570;28;20450;-71
2021/06/20 04:37:38;;;;;;;13.13;10.53;;;;;;;;;;5034696;28;20458;-71
2021/06/20 04:40:05;;;;;;;11.03;9.93;;;;;;;;;;5033794;28;20454;-71
2021/06/20 04:42:34;;;;;;;14.00;10.80;;;;;;;;;;5033270;28;20415;-70
2021/06/20 04:45:00;;;;;;;12.73;11.40;;;;;;;;;;4999214;28;20428;-71
2021/06/20 04:47:27;;;;;;;12.37;11.00;;;;;;;;;;5011190;28;20432;-71
2021/06/20 04:49:54;;;;;;;12.43;10.17;;;;;;;;;;5014853;28;20957;-71
2021/06/20 04:52:20;;;;;;;13.13;10.47;;;;;;;;;;5015584;28;20457;-71
2021/06/20 04:54:49;;;;;;;11.80;9.90;;;;;;;;;;5031467;28;20493;-71
2021/06/20 04:57:20;;;;;;;11.53;9.80;;;;;;;;;;5035224;28;20441;-71
2021/06/20 04:59:46;;;;;;;11.17;10.00;;;;;;;;;;5014994;28;20427;-71
2021/06/20 05:02:12;;;;;;;10.70;9.70;;;;;;;;;;5015626;28;20737;-72
2021/06/20 05:04:38;;;;;;;12.67;9.10;;;;;;;;;;5029778;28;20431;-71
2021/06/20 05:07:04;;;;;;;10.63;9.63;;;;;;;;;;5035181;28;20446;-71
2021/06/20 05:09:30;;;;;;;10.20;9.20;;;;;;;;;;5032965;28;20464;-72
2021/06/20 05:11:56;;;;;;;12.70;10.03;;;;;;;;;;5035448;28;20860;-71
2021/06/20 05:14:22;;;;;;;15.53;11.23;;;;;;;;;;5020100;28;20455;-71
2021/06/20 05:16:48;;;;;;;11.50;9.93;;;;;;;;;;5015321;28;20755;-71
2021/06/20 05:19:14;;;;;;;10.67;9.30;;;;;;;;;;5025640;28;21019;-71
2021/06/20 05:21:40;;;;;;;14.13;10.20;;;;;;;;;;5035104;28;20760;-72
2021/06/20 05:24:07;;;;;;;13.20;9.10;;;;;;;;;;5032305;28;20410;-72
2021/06/20 05:26:33;;;;;;;10.57;9.10;;;;;;;;;;5034603;28;20395;-71
2021/06/20 05:28:59;;;;;;;12.50;8.97;;;;;;;;;;5031236;28;20959;-72
2021/06/20 05:31:25;;;;;;;16.17;9.67;;;;;;;;;;5019696;28;20419;-71
2021/06/20 05:33:51;;;;;;;12.00;9.80;;;;;;;;;;5021023;28;20484;-71
2021/06/20 05:36:17;;;;;;;13.47;8.73;;;;;;;;;;5034457;28;20489;-71
2021/06/20 05:38:44;;;;;;;14.33;8.97;;;;;;;;;;5029651;28;20431;-72
2021/06/20 05:41:10;;;;;;;11.33;8.30;;;;;;;;;;5034244;28;20438;-71
2021/06/20 05:43:36;;;;;;;11.70;8.20;;;;;;;;;;5032764;28;20411;-71
2021/06/20 05:46:02;;;;;;;12.70;7.73;;;;;;;;;;5034165;28;20399;-72
2021/06/20 05:48:28;;;;;;;10.17;8.13;;;;;;;;;;5015067;28;20956;-71
2021/06/20 05:50:54;;;;;;;10.20;7.47;;;;;;;;;;5020215;28;20426;-71
2021/06/20 05:53:20;;;;;;;10.20;8.13;;;;;;;;;;5032347;28;20502;-71
2021/06/20 05:55:46;;;;;;;12.60;8.00;;;;;;;;;;5033914;28;20454;-71
2021/06/20 05:58:13;;;;;;;13.57;8.13;;;;;;;;;;5031847;28;20502;-72
2021/06/20 06:00:40;;;;;;;9.37;7.00;;;;;;;;;;5033921;28;20765;-71
2021/06/20 06:03:06;;;;;;;11.40;7.70;;;;;;;;;;5031844;28;20767;-72
2021/06/20 06:05:32;;;;;;;12.40;7.40;;;;;;;;;;5032584;28;20434;-71
2021/06/20 06:07:59;;;;;;;18.40;8.20;;;;;;;;;;5019401;28;20482;-71
2021/06/20 06:10:28;;;;;;;14.50;7.17;;;;;;;;;;5025503;28;20426;-71
2021/06/20 06:12:54;;;;;;;13.30;7.90;;;;;;;;;;5030023;28;20419;-71
2021/06/20 06:15:21;;;;;;;12.53;6.43;;;;;;;;;;5025781;28;20493;-71
2021/06/20 06:17:49;;;;;;;15.50;7.03;;;;;;;;;;5033558;28;20476;-71
2021/06/20 06:20:15;;;;;;;16.03;7.37;;;;;;;;;;5031534;28;20449;-71
2021/06/20 06:22:41;;;;;;;22.47;7.37;;;;;;;;;;5033448;28;20406;-71
2021/06/20 06:25:08;;;;;;;14.83;7.17;;;;;;;;;;5031582;28;20452;-71
2021/06/20 06:27:34;;;;;;;17.80;6.70;;;;;;;;;;5033127;28;20406;-71
2021/06/20 06:30:00;;;;;;;19.57;6.87;;;;;;;;;;5023995;28;20427;-71
2021/06/20 06:32:26;;;;;;;16.60;6.97;;;;;;;;;;5013906;28;20485;-70
2021/06/20 06:34:52;;;;;;;14.17;7.30;;;;;;;;;;5015956;28;20458;-71
2021/06/20 06:37:18;;;;;;;17.27;7.23;;;;;;;;;;5011888;28;20435;-71
2021/06/20 06:39:44;;;;;;;17.57;6.87;;;;;;;;;;5015269;28;20419;-71
2021/06/20 06:42:10;;;;;;;11.70;7.53;;;;;;;;;;5031824;28;20410;-71
2021/06/20 06:44:36;;;;;;;14.40;7.83;;;;;;;;;;5029278;28;20407;-71
2021/06/20 06:47:02;;;;;;;19.07;7.40;;;;;;;;;;5012551;28;20423;-71
2021/06/20 06:49:28;;;;;;;24.93;8.23;;;;;;;;;;5015186;28;20469;-71
2021/06/20 06:51:54;;;;;;;15.83;7.50;;;;;;;;;;5033407;28;20402;-70
2021/06/20 06:54:20;;;;;;;16.53;7.40;;;;;;;;;;5032971;28;20962;-71
2021/06/20 06:56:47;;;;;;;13.37;7.90;;;;;;;;;;5031250;28;20422;-71
2021/06/20 06:59:13;;;;;;;17.33;9.03;;;;;;;;;;5032802;28;20418;-70
2021/06/20 07:01:39;;;;;;;19.60;8.03;;;;;;;;;;5030902;28;20422;-71
2021/06/20 07:04:06;;;;;;;14.93;7.53;;;;;;;;;;5033512;28;20409;-71
2021/06/20 07:06:32;;;;;;;18.30;7.77;;;;;;;;;;5030998;28;20573;-71
2021/06/20 07:08:58;;;;;;;23.70;10.40;;;;;;;;;;5033114;28;20415;-71
2021/06/20 07:11:24;;;;;;;21.50;8.97;;;;;;;;;;5030859;28;20533;-71
2021/06/20 07:13:50;;;;;;;17.60;8.77;;;;;;;;;;5032998;28;20704;-71
2021/06/20 07:16:16;;;;;;;23.20;8.80;;;;;;;;;;5017276;28;20475;-70
2021/06/20 07:18:42;;;;;;;14.80;6.80;;;;;;;;;;5008297;28;20525;-73
2021/06/20 07:21:08;;;;;;;18.40;8.53;;;;;;;;;;5019714;28;20427;-72
2021/06/20 07:23:34;;;;;;;17.87;9.27;;;;;;;;;;5014031;28;20427;-69
2021/06/20 07:26:00;;;;;;;12.20;7.90;;;;;;;;;;5020286;28;20453;-68
2021/06/20 07:28:26;;;;;;;15.70;8.07;;;;;;;;;;5009686;28;20459;-67
2021/06/20 07:30:53;;;;;;;18.77;6.90;;;;;;;;;;5019973;28;20430;-68
2021/06/20 07:33:20;;;;;;;15.10;7.53;;;;;;;;;;5014113;28;20924;-67
2021/06/20 07:35:51;;;;;;;13.27;6.67;;;;;;;;;;5018975;28;20462;-67
2021/06/20 07:38:17;;;;;;;15.37;8.40;;;;;;;;;;5022942;28;20900;-68
2021/06/20 07:40:44;;;;;;;10.60;6.13;;;;;;;;;;5015101;28;20466;-68
2021/06/20 07:43:10;;;;;;;14.57;6.53;;;;;;;;;;5011039;28;20423;-68
2021/06/20 07:45:37;;;;;;;19.73;9.40;;;;;;;;;;5018572;28;20419;-68
2021/06/20 07:48:03;;;;;;;13.10;6.90;;;;;;;;;;5035085;28;20469;-68
2021/06/20 07:50:29;;;;;;;16.53;6.60;;;;;;;;;;5028424;28;20952;-68
2021/06/20 07:52:55;;;;;;;23.57;6.30;;;;;;;;;;5016561;28;20522;-68
2021/06/20 07:55:21;;;;;;;15.73;6.43;;;;;;;;;;5015324;28;20549;-68
2021/06/20 07:57:47;;;;;;;17.20;8.53;;;;;;;;;;5016538;28;20514;-69
2021/06/20 08:00:13;;;;;;;20.80;8.30;;;;;;;;;;5018001;28;20518;-68
2021/06/20 08:02:41;;;;;;;17.80;6.80;;;;;;;;;;5036299;28;20427;-68
2021/06/20 08:05:07;;;;;;;17.60;8.30;;;;;;;;;;5034232;28;20413;-68
2021/06/20 08:07:33;;;;;;;24.77;9.30;;;;;;;;;;5036169;28;20399;-68
2021/06/20 08:09:59;;;;;;;11.53;6.70;;;;;;;;;;5033839;28;20408;-68
2021/06/20 08:12:26;;;;;;;14.67;6.43;;;;;;;;;;5016345;28;20486;-69
2021/06/20 08:14:52;;;;;;;19.67;7.80;;;;;;;;;;5016249;28;20542;-69
2021/06/20 08:17:18;;;;;;;22.20;7.93;;;;;;;;;;5034849;28;20777;-69
2021/06/20 08:19:44;;;;;;;13.53;7.40;;;;;;;;;;5036119;28;20757;-68
2021/06/20 08:22:10;;;;;;;17.30;7.30;;;;;;;;;;5033598;28;20480;-68
2021/06/20 08:24:37;;;;;;;12.63;6.37;;;;;;;;;;5035764;28;20403;-67
2021/06/20 08:27:04;;;;;;;15.33;6.47;;;;;;;;;;5033741;28;20540;-68
2021/06/20 08:29:30;;;;;;;16.17;7.70;;;;;;;;;;5025589;28;20475;-68
2021/06/20 08:31:56;;;;;;;27.73;6.73;;;;;;;;;;5031707;28;20426;-68
2021/06/20 08:34:22;;;;;;;21.70;7.07;;;;;;;;;;5036820;28;20457;-69
2021/06/20 08:36:48;;;;;;;14.23;6.60;;;;;;;;;;5033816;28;20419;-67
2021/06/20 08:39:14;;;;;;;18.73;6.20;;;;;;;;;;5036725;28;20444;-69
2021/06/20 08:41:41;;;;;;;19.47;5.50;;;;;;;;;;5033579;28;20449;-68
2021/06/20 08:44:18;;;;;;;21.60;5.87;;;;;;;;;;5035560;28;20436;-68
2021/06/20 08:46:44;;;;;;;21.67;7.00;;;;;;;;;;5018984;28;20415;-68
2021/06/20 08:49:11;;;;;;;16.50;5.60;;;;;;;;;;5014073;28;20451;-68
2021/06/20 08:51:38;;;;;;;19.33;5.50;;;;;;;;;;5026584;28;20433;-68
2021/06/20 08:54:04;;;;;;;15.77;5.70;;;;;;;;;;5035176;28;20432;-68
2021/06/20 08:56:30;;;;;;;23.20;7.40;;;;;;;;;;5033450;28;20825;-68
2021/06/20 08:58:56;;;;;;;21.47;6.33;;;;;;;;;;5034325;28;20451;-69
2021/06/20 09:01:22;;;;;;;17.53;5.60;;;;;;;;;;5025341;28;20429;-68
2021/06/20 09:03:48;;;;;;;13.90;5.00;;;;;;;;;;5033124;28;20422;-68
2021/06/20 09:06:19;;;;;;;20.27;6.40;;;;;;;;;;5032899;28;20422;-68
2021/06/20 09:08:47;;;;;;;15.03;7.00;;;;;;;;;;5034884;28;20477;-68
2021/06/20 09:11:22;;;;;;;15.40;5.10;;;;;;;;;;5032966;28;20430;-68
2021/06/20 09:13:48;;;;;;;15.70;5.30;;;;;;;;;;5034890;28;20395;-68
2021/06/20 09:16:14;;;;;;;16.83;5.97;;;;;;;;;;5025851;28;20468;-68
2021/06/20 09:18:50;;;;;;;14.80;4.60;;;;;;;;;;5014686;28;20438;-67
2021/06/20 09:21:16;;;;;;;11.83;4.80;;;;;;;;;;5022048;28;20792;-68
2021/06/20 09:23:42;;;;;;;16.90;5.80;;;;;;;;;;5034744;28;20399;-68
2021/06/20 09:26:09;;;;;;;17.53;4.27;;;;;;;;;;5032569;28;20423;-69
2021/06/20 09:28:36;;;;;;;22.47;5.80;;;;;;;;;;5034561;28;20427;-68
2021/06/20 09:31:04;;;;;;;12.13;4.87;;;;;;;;;;5032429;28;20469;-69
2021/06/20 09:33:31;;;;;;;20.87;5.67;;;;;;;;;;5034367;28;20541;-68
2021/06/20 09:35:58;;;;;;;14.83;5.30;;;;;;;;;;5032480;28;20557;-69
2021/06/20 09:38:23;;;;;;;18.47;5.57;;;;;;;;;;5034592;28;20423;-68
2021/06/20 09:41:09;;;;;;;23.70;5.03;;;;;;;;;;5032399;28;20419;-68
2021/06/20 09:43:35;;;;;;;12.80;4.00;;;;;;;;;;5034326;28;20390;-68
2021/06/20 09:46:02;;;;;;;14.40;4.80;;;;;;;;;;5032201;28;20928;-68
2021/06/20 09:48:28;;;;;;;11.00;4.20;;;;;;;;;;5034047;28;20446;-68
2021/06/20 09:50:58;;;;;;;16.93;5.10;;;;;;;;;;5031397;28;20437;-68
2021/06/20 09:53:32;;;;;;;22.13;5.20;;;;;;;;;;5034120;28;20437;-68
2021/06/20 09:56:18;;;;;;;22.60;5.57;;;;;;;;;;5032055;28;20500;-68
2021/06/20 09:58:45;;;;;;;21.27;6.10;;;;;;;;;;5034070;28;20810;-69
2021/06/20 10:01:12;;;;;;;11.70;4.57;;;;;;;;;;5031922;28;20415;-69
2021/06/20 10:03:39;;;;;;;14.37;4.23;;;;;;;;;;5033815;28;20398;-69
2021/06/20 10:06:05;;;;;;;16.70;4.87;;;;;;;;;;5027925;28;20427;-69
2021/06/20 10:08:35;;;;;;;15.13;4.63;;;;;;;;;;5012473;28;20783;-68
2021/06/20 10:11:01;;;;;;;12.57;4.50;;;;;;;;;;5014950;28;20440;-69
2021/06/20 10:13:27;;;;;;;11.10;4.20;;;;;;;;;;5033759;28;20835;-68
2021/06/20 10:15:53;;;;;;;15.20;4.10;;;;;;;;;;5028393;28;20525;-69
2021/06/20 10:18:20;;;;;;;13.23;4.00;;;;;;;;;;5014036;28;21025;-68
2021/06/20 10:20:46;;;;;;;15.40;7.17;;;;;;;;;;5013790;28;20414;-69
2021/06/20 10:23:23;;;;;;;15.83;4.57;;;;;;;;;;5012001;28;20427;-69
2021/06/20 10:25:49;;;;;;;15.13;4.40;;;;;;;;;;5013977;28;20442;-69
2021/06/20 10:28:16;;;;;;;18.60;4.90;;;;;;;;;;5025043;28;20500;-69
2021/06/20 10:30:43;;;;;;;9.57;4.40;;;;;;;;;;5033284;28;20916;-69
2021/06/20 10:33:12;;;;;;;10.00;3.87;;;;;;;;;;5031132;28;20866;-69
2021/06/20 10:35:38;;;;;;;10.27;3.87;;;;;;;;;;5031155;28;20457;-69
2021/06/20 10:38:04;;;;;;;19.37;5.53;;;;;;;;;;5033164;28;20473;-69
2021/06/20 10:40:30;;;;;;;17.30;4.33;;;;;;;;;;5025042;28;20433;-69
2021/06/20 10:42:58;;;;;;;23.43;5.93;;;;;;;;;;4993577;28;21016;-68
2021/06/20 10:45:28;;;;;;;11.27;4.87;;;;;;;;;;4998102;28;20426;-69
2021/06/20 10:47:54;;;;;;;22.50;5.20;;;;;;;;;;5033435;28;20469;-67
2021/06/20 10:50:20;;;;;;;17.73;5.00;;;;;;;;;;5028768;28;20533;-69
2021/06/20 10:52:56;;;;;;;13.40;4.53;;;;;;;;;;5018334;28;20800;-68
2021/06/20 10:55:22;;;;;;;14.47;4.80;;;;;;;;;;5030870;28;21016;-68
2021/06/20 10:57:50;;;;;;;12.50;4.60;;;;;;;;;;5033741;28;20792;-69
2021/06/20 11:00:25;;;;;;;25.43;5.73;;;;;;;;;;5031356;28;20430;-69
2021/06/20 11:02:51;;;;;;;14.33;4.73;;;;;;;;;;5011259;28;20803;-68
2021/06/20 11:05:24;;;;;;;14.97;4.90;;;;;;;;;;5012542;28;20438;-68
2021/06/20 11:07:50;;;;;;;9.20;4.43;;;;;;;;;;5032794;28;20469;-69
2021/06/20 11:10:23;;;;;;;15.70;4.80;;;;;;;;;;5030913;28;20403;-69
2021/06/20 11:12:56;;;;;;;20.00;5.30;;;;;;;;;;5032745;28;20742;-68
2021/06/20 11:15:26;;;;;;;15.10;5.53;;;;;;;;;;5031261;28;21062;-69
2021/06/20 11:17:52;;;;;;;14.67;5.63;;;;;;;;;;5032872;28;20433;-69
2021/06/20 11:20:18;;;;;;;19.10;5.90;;;;;;;;;;5031279;28;20438;-69
2021/06/20 11:22:44;;;;;;;16.07;5.37;;;;;;;;;;5035031;28;20403;-69
2021/06/20 11:25:10;;;;;;;12.33;4.97;;;;;;;;;;5037203;28;20405;-69
2021/06/20 11:27:36;;;;;;;20.53;6.40;;;;;;;;;;5034656;28;20433;-69
2021/06/20 11:30:03;;;;;;;14.53;4.50;;;;;;;;;;5036829;28;20767;-69
2021/06/20 11:32:30;;;;;;;15.50;4.47;;;;;;;;;;5034934;28;20455;-69
2021/06/20 11:35:07;;;;;;;11.63;5.57;;;;;;;;;;5036451;28;20537;-69
2021/06/20 11:37:53;;;;;;;11.70;5.27;;;;;;;;;;5017513;28;20423;-69
2021/06/20 11:40:21;;;;;;;16.97;5.03;;;;;;;;;;5016486;28;20865;-69
2021/06/20 11:42:48;;;;;;;12.07;4.67;;;;;;;;;;5028729;28;20417;-68
2021/06/20 11:45:16;;;;;;;16.70;6.00;;;;;;;;;;4997324;28;20773;-69
2021/06/20 11:47:42;;;;;;;14.40;5.77;;;;;;;;;;5015192;28;20466;-69
2021/06/20 11:50:18;;;;;;;15.23;5.30;;;;;;;;;;5016584;28;20411;-69
2021/06/20 11:52:49;;;;;;;20.57;4.73;;;;;;;;;;5034189;28;20437;-69
2021/06/20 11:55:16;;;;;;;10.37;4.90;;;;;;;;;;5036090;28;20537;-69
2021/06/20 11:57:43;;;;;;;10.40;4.90;;;;;;;;;;5034382;28;20438;-69
2021/06/20 12:00:12;;;;;;;12.83;5.50;;;;;;;;;;5028439;28;20424;-69
2021/06/20 12:02:38;;;;;;;12.87;4.40;;;;;;;;;;5031418;28;20449;-69
2021/06/20 12:05:04;;;;;;;16.10;6.00;;;;;;;;;;5036073;28;20402;-69
2021/06/20 12:07:30;;;;;;;14.27;5.50;;;;;;;;;;5034019;28;20426;-69
2021/06/20 12:09:57;;;;;;;17.27;5.47;;;;;;;;;;5035922;28;20887;-69
2021/06/20 12:12:23;;;;;;;22.23;5.80;;;;;;;;;;5019818;28;20776;-68
2021/06/20 12:14:57;;;;;;;17.90;5.80;;;;;;;;;;5015201;28;20450;-68
2021/06/20 12:17:23;;;;;;;14.90;5.30;;;;;;;;;;5016194;28;20419;-68
2021/06/20 12:19:51;;;;;;;16.87;5.97;;;;;;;;;;5016204;28;20460;-68
2021/06/20 12:22:17;;;;;;;18.90;6.63;;;;;;;;;;5027189;28;20980;-68
2021/06/20 12:24:45;;;;;;;14.27;6.33;;;;;;;;;;5036178;28;20422;-68
2021/06/20 12:27:12;;;;;;;16.23;5.67;;;;;;;;;;5032607;28;20425;-68
2021/06/20 12:29:39;;;;;;;11.50;5.50;;;;;;;;;;5035626;28;20509;-68
2021/06/20 12:32:14;;;;;;;18.30;5.70;;;;;;;;;;5033792;28;20422;-68
2021/06/20 12:34:45;;;;;;;12.43;7.33;;;;;;;;;;5034468;28;20634;-68
2021/06/20 12:37:11;;;;;;;14.23;5.83;;;;;;;;;;5033666;28;20430;-69
2021/06/20 12:39:44;;;;;;;11.13;5.70;;;;;;;;;;5035429;28;20811;-68
2021/06/20 12:42:11;;;;;;;15.60;5.30;;;;;;;;;;5011337;28;20918;-69
2021/06/20 12:44:38;;;;;;;18.93;5.97;;;;;;;;;;4995829;28;20728;-69
2021/06/20 12:47:04;;;;;;;15.03;5.40;;;;;;;;;;5005681;28;20424;-69
2021/06/20 12:49:30;;;;;;;18.10;5.87;;;;;;;;;;5015875;28;20462;-69
2021/06/20 12:52:00;;;;;;;14.73;5.80;;;;;;;;;;5024446;28;20431;-69
2021/06/20 12:54:36;;;;;;;17.43;5.90;;;;;;;;;;5035030;28;20469;-69
2021/06/20 12:57:06;;;;;;;17.60;6.60;;;;;;;;;;5022442;28;20511;-69
2021/06/20 12:59:42;;;;;;;17.33;6.03;;;;;;;;;;5015024;28;20499;-68
2021/06/20 13:02:08;;;;;;;22.53;6.33;;;;;;;;;;5024075;28;20422;-68
2021/06/20 13:04:46;;;;;;;21.80;5.53;;;;;;;;;;5035274;28;20403;-68
2021/06/20 13:07:12;;;;;;;14.67;5.20;;;;;;;;;;5032855;28;20491;-69
2021/06/20 13:09:38;;;;;;;16.20;6.47;;;;;;;;;;5034888;28;20939;-68
2021/06/20 13:12:05;;;;;;;8.77;4.77;;;;;;;;;;5032707;28;20453;-69
2021/06/20 13:14:33;;;;;;;13.17;5.80;;;;;;;;;;5032830;28;20454;-68
2021/06/20 13:17:00;;;;;;;17.03;5.60;;;;;;;;;;5031623;28;20868;-68
2021/06/20 13:19:27;;;;;;;14.30;5.10;;;;;;;;;;5034529;28;20437;-69
2021/06/20 13:21:54;;;;;;;17.43;5.87;;;;;;;;;;5032793;28;20435;-68
2021/06/20 13:24:20;;;;;;;19.33;6.40;;;;;;;;;;5034826;28;20414;-67
2021/06/20 13:26:47;;;;;;;14.63;5.90;;;;;;;;;;5032521;28;20791;-68
2021/06/20 13:29:14;;;;;;;15.37;5.70;;;;;;;;;;5034655;28;20473;-68
2021/06/20 13:31:40;;;;;;;21.07;5.70;;;;;;;;;;5032591;28;20951;-68
2021/06/20 13:34:06;;;;;;;17.50;4.77;;;;;;;;;;5034616;28;20801;-68
2021/06/20 13:36:32;;;;;;;20.70;5.40;;;;;;;;;;5031451;28;20461;-68
2021/06/20 13:38:58;;;;;;;19.53;5.60;;;;;;;;;;5032382;28;20442;-69
2021/06/20 13:41:24;;;;;;;11.17;5.27;;;;;;;;;;5032494;28;20460;-69
2021/06/20 13:43:50;;;;;;;18.40;6.13;;;;;;;;;;5034296;28;20933;-68
2021/06/20 13:46:17;;;;;;;17.57;5.80;;;;;;;;;;5031943;28;20449;-69
2021/06/20 13:48:43;;;;;;;16.97;5.63;;;;;;;;;;5020973;28;20455;-68
2021/06/20 13:51:09;;;;;;;15.50;6.03;;;;;;;;;;5013641;28;20880;-69
2021/06/20 13:53:36;;;;;;;27.23;6.73;;;;;;;;;;5034141;28;20449;-69
2021/06/20 13:56:02;;;;;;;15.10;5.50;;;;;;;;;;5034158;28;20457;-69
2021/06/20 13:58:28;;;;;;;13.63;5.13;;;;;;;;;;5032541;28;20454;-68
2021/06/20 14:00:55;;;;;;;12.63;5.37;;;;;;;;;;5034156;28;20477;-68
2021/06/20 14:03:21;;;;;;;17.70;5.60;;;;;;;;;;5032085;28;20809;-69
2021/06/20 14:05:47;;;;;;;18.87;5.00;;;;;;;;;;5033806;28;20446;-69
2021/06/20 14:08:13;;;;;;;24.30;6.30;;;;;;;;;;5031859;28;20477;-69
2021/06/20 14:10:39;;;;;;;10.87;5.23;;;;;;;;;;5033821;28;20830;-69
2021/06/20 14:13:05;;;;;;;16.10;5.00;;;;;;;;;;5032044;28;20430;-69
2021/06/20 14:15:31;;;;;;;15.90;5.53;;;;;;;;;;5034162;28;20464;-69
2021/06/20 14:17:57;;;;;;;16.63;5.20;;;;;;;;;;5031780;28;20481;-69
2021/06/20 14:20:23;;;;;;;14.43;4.70;;;;;;;;;;5033604;28;20398;-68
2021/06/20 14:22:49;;;;;;;19.57;6.27;;;;;;;;;;5029983;28;20522;-69
2021/06/20 14:25:15;;;;;;;14.33;5.80;;;;;;;;;;5033525;28;20902;-69